»·PEaware :: SWA4051 KSNA-KSMF

SWA4051 :: KSNA-KSMF

FLIGHT INFORMATION

Flight Status: Arrived
Operator:
Southwest Airlines
More flights by this operator :: More flights under this callsign
Pilot: Nick F. (11956)
Aircraft: BOEING 737-800
(B738)
More flights by this aircraft type
Origin: KSNA John Wayne-Orange Co
United States
Destination: KSMF Sacramento Intl
United States
More flights between these airports :: More routes between these airports
Route: +HHERO1 EHF NURAY SUUTR2
File this flight plan on PilotEdge
Remarks: HHER01 Departure Shafter Trans.
Altitude:
(Current/Filed)
36,000ft
Speed:
(Current/Filed)
450kts
Departed: 19-Jun-17 01:19 PM
Arrived: 19-Jun-17 02:31 PM
Distance/Time
Traveled:
351nm/1:12
Distance/Time
To Go:
Arrived

Flight Plot

Page will automatically refresh every two minutes.

Flight plan parsing failed; only flown route is shown


Map Options




Map Legend


Flown Route
Filed Route
Departure Airport
Arrival Airport
Navaid (VOR, NDB)
Fix

Horizontal Profiles

Position Reports

Time Latitude Longitude Heading Altitude Ground
Speed
19-Jun-17 12:54 33.677107 -117.863356 116 64ft 0kts
19-Jun-17 12:55 33.677107 -117.863356 116 64ft 0kts
19-Jun-17 12:56 33.677107 -117.863356 116 64ft 0kts
19-Jun-17 12:57 33.677107 -117.863356 116 64ft 0kts
19-Jun-17 12:58 33.677107 -117.863356 116 64ft 0kts
19-Jun-17 12:59 33.677107 -117.863356 116 64ft 0kts
19-Jun-17 13:00 33.677107 -117.863356 116 64ft 0kts
19-Jun-17 13:01 33.677107 -117.863356 116 64ft 0kts
19-Jun-17 13:02 33.677107 -117.863356 116 64ft 0kts
19-Jun-17 13:03 33.677107 -117.863356 116 64ft 0kts
19-Jun-17 13:04 33.677107 -117.863356 116 64ft 0kts
19-Jun-17 13:05 33.677107 -117.863356 116 64ft 0kts
19-Jun-17 13:06 33.677136 -117.863427 116 64ft 0kts
19-Jun-17 13:07 33.677136 -117.863427 116 64ft 0kts
19-Jun-17 13:08 33.677136 -117.863427 116 64ft 0kts
19-Jun-17 13:09 33.677136 -117.863427 116 64ft 0kts
19-Jun-17 13:10 33.677136 -117.863427 116 64ft 0kts
19-Jun-17 13:11 33.677136 -117.863427 116 64ft 0kts
19-Jun-17 13:12 33.677180 -117.863533 116 64ft 2kts
19-Jun-17 13:13 33.677065 -117.864411 46 64ft 2kts
19-Jun-17 13:14 33.677022 -117.864465 46 64ft 0kts
19-Jun-17 13:15 33.677023 -117.864464 46 64ft 0kts
19-Jun-17 13:16 33.677635 -117.864062 26 64ft 9kts
19-Jun-17 13:17 33.679837 -117.862776 27 64ft 7kts
19-Jun-17 13:18 33.680473 -117.862805 301 64ft 0kts
19-Jun-17 13:19 33.680474 -117.862807 301 64ft 0kts
19-Jun-17 13:20 33.680548 -117.862951 300 64ft 8kts
19-Jun-17 13:21 33.681462 -117.865091 260 64ft 6kts
19-Jun-17 13:22 33.671419 -117.871621 207 92ft 148kts
19-Jun-17 13:23 33.624370 -117.896323 178 1851ft 203kts
19-Jun-17 13:24 33.564825 -117.908469 217 3654ft 238kts
19-Jun-17 13:25 33.512597 -117.965766 224 5704ft 269kts
19-Jun-17 13:26 33.463277 -118.035511 241 7906ft 281kts
19-Jun-17 13:27 33.423363 -118.118339 240 10112ft 297kts
19-Jun-17 13:28 33.423990 -118.222459 283 12361ft 344kts
19-Jun-17 13:29 33.452932 -118.332739 295 14563ft 354kts
19-Jun-17 13:30 33.499844 -118.438355 297 16772ft 363kts
19-Jun-17 13:31 33.588434 -118.487256 8 18955ft 391kts
19-Jun-17 13:32 33.697725 -118.463933 4 20810ft 416kts
19-Jun-17 13:33 33.815906 -118.458745 357 22648ft 431kts
19-Jun-17 13:34 33.937236 -118.459804 359 24370ft 444kts
19-Jun-17 13:35 34.062645 -118.467715 352 25755ft 461kts
19-Jun-17 13:36 34.189725 -118.488264 352 27724ft 459kts
19-Jun-17 13:37 34.316328 -118.508058 352 29574ft 459kts
19-Jun-17 13:38 34.442567 -118.527581 352 31474ft 455kts
19-Jun-17 13:39 34.565699 -118.546646 350 33492ft 444kts
19-Jun-17 13:40 34.687644 -118.565579 349 35494ft 428kts
19-Jun-17 13:41 34.808887 -118.584474 350 35960ft 450kts
19-Jun-17 13:42 34.934322 -118.604114 349 36024ft 453kts
19-Jun-17 13:43 35.050328 -118.655170 319 36051ft 450kts
19-Jun-17 13:44 35.146856 -118.752466 316 36066ft 447kts
19-Jun-17 13:45 35.234438 -118.841792 316 36000ft 456kts
19-Jun-17 13:46 35.332222 -118.941050 316 35927ft 457kts
19-Jun-17 13:47 35.427986 -119.039177 316 35878ft 459kts
19-Jun-17 13:48 35.528963 -119.122423 332 35859ft 466kts
19-Jun-17 13:49 35.647890 -119.185523 333 35855ft 466kts
19-Jun-17 13:50 35.766653 -119.249235 333 35855ft 466kts
19-Jun-17 13:51 35.885722 -119.313338 333 35858ft 466kts
19-Jun-17 13:52 36.004372 -119.377573 333 35859ft 466kts
19-Jun-17 13:53 36.123063 -119.442122 333 35645ft 467kts
19-Jun-17 13:54 36.241998 -119.507040 333 34437ft 469kts
19-Jun-17 13:55 36.362154 -119.572719 333 33172ft 473kts
19-Jun-17 13:56 36.482871 -119.639122 333 31884ft 484kts
19-Jun-17 13:56 36.589392 -119.698246 334 30070ft 510kts
19-Jun-17 13:57 36.712593 -119.776068 323 28727ft 468kts
19-Jun-17 13:59 36.831777 -119.883461 322 27146ft 443kts
19-Jun-17 14:00 36.936117 -119.968367 325 26370ft 445kts
19-Jun-17 14:01 37.039975 -120.050631 326 25610ft 439kts
19-Jun-17 14:01 37.125434 -120.118425 326 24985ft 434kts
19-Jun-17 14:02 37.226990 -120.199377 326 24243ft 428kts
19-Jun-17 14:03 37.326992 -120.279141 326 23839ft 426kts
19-Jun-17 14:04 37.422748 -120.355906 326 23840ft 426kts
19-Jun-17 14:05 37.519211 -120.442055 318 23306ft 420kts
19-Jun-17 14:06 37.609141 -120.533594 320 21425ft 410kts
19-Jun-17 14:07 37.697270 -120.621897 320 19606ft 399kts
19-Jun-17 14:08 37.782346 -120.707630 320 18480ft 381kts
19-Jun-17 14:09 37.865555 -120.791556 320 16910ft 380kts
19-Jun-17 14:10 37.947940 -120.875153 320 15633ft 376kts
19-Jun-17 14:11 38.029111 -120.957929 320 14418ft 370kts
19-Jun-17 14:12 38.103631 -121.045110 309 13369ft 354kts
19-Jun-17 14:13 38.161945 -121.132930 308 12842ft 302kts
19-Jun-17 14:14 38.215980 -121.213079 310 11189ft 301kts
19-Jun-17 14:15 38.274922 -121.288015 315 10345ft 301kts
19-Jun-17 14:16 38.334116 -121.362387 316 9377ft 299kts
19-Jun-17 14:17 38.391748 -121.435603 317 8409ft 285kts
19-Jun-17 14:18 38.446652 -121.505639 316 7490ft 275kts
19-Jun-17 14:19 38.502035 -121.570327 324 6999ft 263kts
19-Jun-17 14:20 38.560449 -121.628084 323 5835ft 264kts
19-Jun-17 14:21 38.617221 -121.679668 341 5053ft 253kts
19-Jun-17 14:22 38.681588 -121.690822 354 4338ft 222kts
19-Jun-17 14:23 38.742959 -121.694088 0 4010ft 219kts
19-Jun-17 14:24 38.802606 -121.691910 0 4025ft 202kts
19-Jun-17 14:25 38.857160 -121.689807 0 4010ft 195kts
19-Jun-17 14:26 38.911692 -121.686467 18 3997ft 194kts
19-Jun-17 14:27 38.907946 -121.632218 143 3191ft 189kts
19-Jun-17 14:28 38.866074 -121.593156 143 2590ft 183kts
19-Jun-17 14:29 38.821365 -121.578057 182 2117ft 169kts
19-Jun-17 14:30 38.774901 -121.578921 182 1356ft 165kts
19-Jun-17 14:31 38.731924 -121.579643 181 528ft 144kts
19-Jun-17 14:32 38.695415 -121.580196 185 36ft 56kts
19-Jun-17 14:33 38.690819 -121.582901 316 36ft 8kts
19-Jun-17 14:34 38.692596 -121.582960 0 36ft 13kts

Navigation Log

Ident Type
Flight plan parsing failed, navigation log unavailable